createdAt,value
2017-04-14T00:00:50.604Z,28.9
2017-04-14T00:01:50.569Z,28.9
2017-04-14T00:02:52.330Z,28.9
2017-04-14T00:03:50.632Z,28.9
2017-04-14T00:04:50.681Z,28.9
2017-04-14T00:05:53.056Z,28.9
2017-04-14T00:06:50.799Z,28.9
2017-04-14T00:07:52.475Z,28.9
2017-04-14T00:08:50.843Z,28.9
2017-04-14T00:09:52.575Z,28.9
2017-04-14T00:10:50.927Z,28.9
2017-04-14T00:11:51.163Z,28.9
2017-04-14T00:12:52.665Z,28.9
2017-04-14T00:13:52.720Z,28.9
2017-04-14T00:14:51.194Z,28.9
2017-04-14T00:15:52.832Z,28.9
2017-04-14T00:16:52.886Z,28.9
2017-04-14T00:17:52.951Z,28.9
2017-04-14T00:18:52.932Z,28.9
2017-04-14T00:19:51.632Z,28.9
2017-04-14T00:20:53.167Z,28.9
2017-04-14T00:21:53.139Z,28.9
2017-04-14T00:22:53.229Z,28.9
2017-04-14T00:23:51.719Z,28.9
2017-04-14T00:24:51.628Z,28.9
2017-04-14T00:25:53.425Z,28.9
2017-04-14T00:26:53.367Z,28.9
2017-04-14T00:27:53.433Z,28.8
2017-04-14T00:28:53.323Z,28.9
2017-04-14T00:29:53.382Z,28.9
2017-04-14T00:30:53.436Z,28.8
2017-04-14T00:31:53.734Z,28.9
2017-04-14T00:32:53.605Z,28.9
2017-04-14T00:33:52.018Z,28.9
2017-04-14T00:34:53.699Z,28.9
2017-04-14T00:35:52.302Z,28.9
2017-04-14T00:36:52.294Z,28.8
2017-04-14T00:37:52.452Z,28.9
2017-04-14T00:38:53.805Z,28.9
2017-04-14T00:39:53.985Z,28.8
2017-04-14T00:40:53.990Z,28.9
2017-04-14T00:41:53.990Z,28.9
2017-04-14T00:42:52.584Z,28.9
2017-04-14T00:43:54.395Z,28.9
2017-04-14T00:44:52.603Z,28.9
2017-04-14T00:45:54.251Z,28.9
2017-04-14T00:46:54.216Z,28.9
2017-04-14T00:47:54.357Z,28.8
2017-04-14T00:48:54.483Z,28.8
2017-04-14T00:49:53.614Z,28.8
2017-04-14T00:50:54.520Z,28.8
2017-04-14T00:51:52.891Z,28.8
2017-04-14T00:52:54.630Z,28.8
2017-04-14T00:53:53.102Z,28.8
2017-04-14T00:54:54.823Z,28.8
2017-04-14T00:55:55.564Z,28.8
2017-04-14T00:56:55.429Z,28.8
2017-04-14T00:57:53.293Z,28.8
2017-04-14T00:58:53.478Z,28.8
2017-04-14T00:59:53.359Z,28.8
2017-04-14T01:00:53.551Z,28.8
2017-04-14T01:01:53.369Z,28.8
2017-04-14T01:02:55.749Z,28.8
2017-04-14T01:03:53.584Z,28.8
2017-04-14T01:04:53.632Z,28.8
2017-04-14T01:05:53.710Z,28.8
2017-04-14T01:06:53.732Z,28.8
2017-04-14T01:07:55.379Z,28.8
2017-04-14T01:08:53.981Z,28.8
2017-04-14T01:09:55.578Z,28.8
2017-04-14T01:10:55.551Z,28.8
2017-04-14T01:11:54.115Z,28.8
2017-04-14T01:12:54.011Z,28.8
2017-04-14T01:13:54.639Z,28.8
2017-04-14T01:14:54.191Z,28.8
2017-04-14T01:15:54.202Z,28.8
2017-04-14T01:16:54.285Z,28.8
2017-04-14T01:17:54.395Z,28.8
2017-04-14T01:18:55.871Z,28.8
2017-04-14T01:19:56.057Z,28.8
2017-04-14T01:20:55.917Z,28.8
2017-04-14T01:21:55.994Z,28.8
2017-04-14T01:22:56.096Z,28.8
2017-04-14T01:23:54.618Z,28.8
2017-04-14T01:24:54.744Z,28.8
2017-04-14T01:25:54.722Z,28.8
2017-04-14T01:26:56.259Z,28.8
2017-04-14T01:27:56.481Z,28.8
2017-04-14T01:28:56.439Z,28.8
2017-04-14T01:29:56.450Z,28.8
2017-04-14T01:30:56.541Z,28.8
2017-04-14T01:31:55.082Z,28.8
2017-04-14T01:32:56.673Z,28.8
2017-04-14T01:33:55.188Z,28.8
2017-04-14T01:34:55.312Z,28.8
2017-04-14T01:35:55.434Z,28.8
2017-04-14T01:36:57.140Z,28.8
2017-04-14T01:37:57.147Z,28.8
2017-04-14T01:38:56.992Z,28.7
2017-04-14T01:39:55.428Z,28.8
2017-04-14T01:40:57.051Z,28.7
2017-04-14T01:41:57.084Z,28.8
2017-04-14T01:42:55.888Z,28.8
2017-04-14T01:43:57.228Z,28.8
2017-04-14T01:44:55.590Z,28.8
2017-04-14T01:45:55.753Z,28.8
2017-04-14T01:46:55.789Z,28.8
2017-04-14T01:47:55.716Z,28.8
2017-04-14T01:48:56.034Z,28.8
2017-04-14T01:49:55.707Z,28.8
2017-04-14T01:50:55.893Z,28.8
2017-04-14T01:51:57.436Z,28.8
2017-04-14T01:52:55.971Z,28.7
2017-04-14T01:53:55.937Z,28.8
2017-04-14T01:54:57.730Z,28.8
2017-04-14T01:55:56.065Z,28.8
2017-04-14T01:56:57.711Z,28.8
2017-04-14T01:57:57.668Z,28.7
2017-04-14T01:58:56.128Z,28.8
2017-04-14T01:59:57.903Z,28.8
2017-04-14T02:00:56.426Z,28.7
2017-04-14T02:01:57.925Z,28.8
2017-04-14T02:02:56.496Z,28.8
2017-04-14T02:03:56.380Z,28.8
2017-04-14T02:04:56.520Z,28.8
2017-04-14T02:05:56.479Z,28.8
2017-04-14T02:06:58.382Z,28.8
2017-04-14T02:07:58.233Z,28.8
2017-04-14T02:08:58.274Z,28.8
2017-04-14T02:09:58.373Z,28.8
2017-04-14T02:10:56.661Z,28.8
2017-04-14T02:11:56.792Z,28.7
2017-04-14T02:12:58.673Z,28.8
2017-04-14T02:13:56.913Z,28.8
2017-04-14T02:14:56.888Z,28.8
2017-04-14T02:15:58.623Z,28.8
2017-04-14T02:16:58.572Z,28.7
2017-04-14T02:17:58.729Z,28.8
2017-04-14T02:18:58.869Z,28.8
2017-04-14T02:19:58.734Z,28.8
2017-04-14T02:20:58.770Z,28.8
2017-04-14T02:21:58.767Z,28.8
2017-04-14T02:22:57.226Z,28.8
2017-04-14T02:23:57.230Z,28.7
2017-04-14T02:24:57.597Z,28.8
2017-04-14T02:25:57.351Z,28.8
2017-04-14T02:26:58.941Z,28.8
2017-04-14T02:27:59.028Z,28.8
2017-04-14T02:28:59.050Z,28.8
2017-04-14T02:29:59.090Z,28.8
2017-04-14T02:30:59.299Z,28.8
2017-04-14T02:31:57.458Z,28.8
2017-04-14T02:32:59.184Z,28.7
2017-04-14T02:33:57.723Z,28.8
2017-04-14T02:34:57.839Z,28.8
2017-04-14T02:35:59.350Z,28.8
2017-04-14T02:36:59.654Z,28.8
2017-04-14T02:37:57.817Z,28.8
2017-04-14T02:38:58.002Z,28.8
2017-04-14T02:39:58.008Z,28.8
2017-04-14T02:40:59.513Z,28.8
2017-04-14T02:41:59.805Z,28.8
2017-04-14T02:42:58.232Z,28.8
2017-04-14T02:43:59.890Z,28.8
2017-04-14T02:44:59.826Z,28.8
2017-04-14T02:45:58.369Z,28.8
2017-04-14T02:46:58.318Z,28.7
2017-04-14T02:48:00.206Z,28.8
2017-04-14T02:49:00.203Z,28.8
2017-04-14T02:49:58.487Z,28.7
2017-04-14T02:51:00.169Z,28.7
2017-04-14T02:51:58.602Z,28.7
2017-04-14T02:52:58.771Z,28.8
2017-04-14T02:54:00.507Z,28.7
2017-04-14T02:54:58.734Z,28.7
2017-04-14T02:55:58.770Z,28.7
2017-04-14T02:57:00.407Z,28.7
2017-04-14T02:58:00.503Z,28.7
2017-04-14T02:58:58.996Z,28.7
2017-04-14T03:00:00.666Z,28.7
2017-04-14T03:01:00.725Z,28.7
2017-04-14T03:02:00.671Z,28.7
2017-04-14T03:02:59.138Z,28.7
2017-04-14T03:04:00.848Z,28.7
2017-04-14T03:04:59.232Z,28.7
2017-04-14T03:06:00.887Z,28.7
2017-04-14T03:06:59.353Z,28.7
2017-04-14T03:08:00.850Z,28.7
2017-04-14T03:08:59.331Z,28.7
2017-04-14T03:09:59.476Z,28.7
2017-04-14T03:10:59.501Z,28.7
2017-04-14T03:12:01.035Z,28.7
2017-04-14T03:13:01.176Z,28.7
2017-04-14T03:14:01.320Z,28.7
2017-04-14T03:15:01.219Z,28.7
2017-04-14T03:16:01.265Z,28.7
2017-04-14T03:17:01.395Z,28.7
2017-04-14T03:17:59.754Z,28.7
2017-04-14T03:19:00.010Z,28.7
2017-04-14T03:20:01.537Z,28.7
2017-04-14T03:21:07.677Z,28.7
2017-04-14T03:22:01.762Z,28.7
2017-04-14T03:23:00.225Z,28.7
2017-04-14T03:24:00.215Z,28.7
2017-04-14T03:25:00.226Z,28.7
2017-04-14T03:26:01.808Z,28.7
2017-04-14T03:27:00.336Z,28.7
2017-04-14T03:28:00.318Z,28.7
2017-04-14T03:29:00.292Z,28.7
2017-04-14T03:30:00.417Z,28.7
2017-04-14T03:31:02.147Z,28.7
2017-04-14T03:32:02.112Z,28.7
2017-04-14T03:33:02.160Z,28.7
2017-04-14T03:34:00.765Z,28.7
2017-04-14T03:35:00.857Z,28.7
2017-04-14T03:36:00.769Z,28.7
2017-04-14T03:37:00.765Z,28.7
2017-04-14T03:38:00.983Z,28.7
2017-04-14T03:39:00.942Z,28.7
2017-04-14T03:40:01.109Z,28.7
2017-04-14T03:41:02.560Z,28.7
2017-04-14T03:42:00.974Z,28.7
2017-04-14T03:43:01.203Z,28.7
2017-04-14T03:44:02.780Z,28.7
2017-04-14T03:45:01.105Z,28.7
2017-04-14T03:46:01.244Z,28.7
2017-04-14T03:47:01.308Z,28.7
2017-04-14T03:48:01.327Z,28.7
2017-04-14T03:49:01.271Z,28.7
2017-04-14T03:50:01.401Z,28.7
2017-04-14T03:51:03.002Z,28.7
2017-04-14T03:52:03.053Z,28.7
2017-04-14T03:53:03.077Z,28.7
2017-04-14T03:54:03.037Z,28.7
2017-04-14T03:55:03.151Z,28.7
2017-04-14T03:56:01.652Z,28.6
2017-04-14T03:57:03.173Z,28.7
2017-04-14T03:58:35.994Z,28.7
2017-04-14T03:59:36.053Z,28.7
2017-04-14T04:00:36.040Z,28.6
2017-04-14T04:01:37.595Z,28.7
2017-04-14T04:02:36.244Z,28.6
2017-04-14T04:03:37.865Z,28.7
2017-04-14T04:04:37.849Z,28.7
2017-04-14T04:05:36.201Z,28.7
2017-04-14T04:06:36.319Z,28.6
2017-04-14T04:07:37.983Z,28.7
2017-04-14T04:08:38.093Z,28.7
2017-04-14T04:09:37.940Z,28.7
2017-04-14T04:10:38.051Z,28.7
2017-04-14T04:11:38.081Z,28.7
2017-04-14T04:12:38.091Z,28.7
2017-04-14T04:13:38.599Z,28.7
2017-04-14T04:14:38.239Z,28.7
2017-04-14T04:15:38.374Z,28.7
2017-04-14T04:16:36.863Z,28.7
2017-04-14T04:17:38.420Z,28.7
2017-04-14T04:18:36.796Z,28.7
2017-04-14T04:19:38.506Z,28.7
2017-04-14T04:20:36.973Z,28.7
2017-04-14T04:21:36.945Z,28.7
2017-04-14T04:22:36.929Z,28.7
2017-04-14T04:23:37.107Z,28.7
2017-04-14T04:24:38.581Z,28.7
2017-04-14T04:25:38.744Z,28.6
2017-04-14T04:26:37.237Z,28.7
2017-04-14T04:27:38.741Z,28.7
2017-04-14T04:28:37.293Z,28.6
2017-04-14T04:29:38.854Z,28.7
2017-04-14T04:30:37.379Z,28.7
2017-04-14T04:31:38.937Z,28.7
2017-04-14T04:32:37.498Z,28.6
2017-04-14T04:33:37.582Z,28.7
2017-04-14T04:34:37.483Z,28.7
2017-04-14T04:35:37.493Z,28.7
2017-04-14T04:36:39.203Z,28.7
2017-04-14T04:37:37.680Z,28.7
2017-04-14T04:38:39.207Z,28.7
2017-04-14T04:39:37.617Z,28.7
2017-04-14T04:40:37.726Z,28.7
2017-04-14T04:41:39.926Z,28.7
2017-04-14T04:42:37.740Z,28.7
2017-04-14T04:43:37.983Z,28.7
2017-04-14T04:44:38.040Z,28.7
2017-04-14T04:45:39.552Z,28.7
2017-04-14T04:46:39.127Z,28.7
2017-04-14T04:47:39.805Z,28.7
2017-04-14T04:48:39.754Z,28.7
2017-04-14T04:49:39.783Z,28.7
2017-04-14T04:50:38.305Z,28.8
2017-04-14T04:51:39.891Z,28.8
2017-04-14T04:52:38.624Z,28.8
2017-04-14T04:53:38.386Z,28.8
2017-04-14T04:54:38.440Z,28.7
2017-04-14T04:55:38.466Z,28.8
2017-04-14T04:56:38.575Z,28.8
2017-04-14T04:57:39.674Z,28.8
2017-04-14T04:58:40.496Z,28.8
2017-04-14T04:59:38.631Z,28.8
2017-04-14T05:00:40.402Z,28.8
2017-04-14T05:01:40.514Z,28.8
2017-04-14T05:02:38.884Z,28.8
2017-04-14T05:03:40.537Z,28.8
2017-04-14T05:04:39.403Z,28.8
2017-04-14T05:05:39.187Z,28.8
2017-04-14T05:06:40.870Z,28.9
2017-04-14T05:07:39.214Z,28.9
2017-04-14T05:08:40.936Z,28.8
2017-04-14T05:09:39.312Z,28.9
2017-04-14T05:10:39.487Z,28.9
2017-04-14T05:11:41.010Z,28.9
2017-04-14T05:12:41.023Z,28.9
2017-04-14T05:13:41.181Z,28.8
2017-04-14T05:14:39.548Z,28.9
2017-04-14T05:15:39.694Z,28.9
2017-04-14T05:16:39.878Z,28.9
2017-04-14T05:17:41.335Z,28.9
2017-04-14T05:18:39.921Z,28.9
2017-04-14T05:19:39.913Z,28.9
2017-04-14T05:20:41.526Z,28.9
2017-04-14T05:21:41.555Z,28.9
2017-04-14T05:22:40.146Z,28.9
2017-04-14T05:23:40.061Z,28.9
2017-04-14T05:24:41.792Z,28.9
2017-04-14T05:25:41.860Z,28.9
2017-04-14T05:26:40.275Z,28.9
2017-04-14T05:27:40.198Z,28.9
2017-04-14T05:28:42.246Z,28.9
2017-04-14T05:29:41.683Z,28.9
2017-04-14T05:30:40.956Z,28.9
2017-04-14T05:31:41.991Z,28.9
2017-04-14T05:32:40.624Z,28.9
2017-04-14T05:33:40.639Z,28.9
2017-04-14T05:34:40.698Z,28.9
2017-04-14T05:35:42.273Z,28.9
2017-04-14T05:36:42.249Z,28.9
2017-04-14T05:37:41.517Z,28.9
2017-04-14T05:38:40.790Z,28.9
2017-04-14T05:39:40.747Z,28.9
2017-04-14T05:40:42.825Z,28.9
2017-04-14T05:41:40.862Z,29
2017-04-14T05:42:42.690Z,29
2017-04-14T05:43:41.084Z,29
2017-04-14T05:44:41.044Z,29
2017-04-14T05:45:42.764Z,29
2017-04-14T05:46:42.882Z,29
2017-04-14T05:47:41.235Z,29
2017-04-14T05:48:41.243Z,29
2017-04-14T05:49:41.388Z,29
2017-04-14T05:50:41.456Z,29
2017-04-14T05:51:41.459Z,29
2017-04-14T05:52:41.617Z,29
2017-04-14T05:53:41.515Z,29.1
2017-04-14T05:54:41.675Z,29
2017-04-14T05:55:41.775Z,29.1
2017-04-14T05:56:41.860Z,29.1
2017-04-14T05:57:43.399Z,29.1
2017-04-14T05:58:42.164Z,29.1
2017-04-14T05:59:41.826Z,29.1
2017-04-14T06:00:41.981Z,29.1
2017-04-14T06:01:43.673Z,29.1
2017-04-14T06:02:41.966Z,29.2
2017-04-14T06:03:42.102Z,29.2
2017-04-14T06:04:42.319Z,29.2
2017-04-14T06:05:42.061Z,29.2
2017-04-14T06:06:42.195Z,29.2
2017-04-14T06:07:42.144Z,29.3
2017-04-14T06:08:42.262Z,29.3
2017-04-14T06:09:42.198Z,29.3
2017-04-14T06:10:44.112Z,29.3
2017-04-14T06:11:43.856Z,29.3
2017-04-14T06:12:43.942Z,29.3
2017-04-14T06:13:42.529Z,29.4
2017-04-14T06:14:44.089Z,29.4
2017-04-14T06:15:42.666Z,29.4
2017-04-14T06:16:44.387Z,29.4
2017-04-14T06:17:44.311Z,29.5
2017-04-14T06:18:44.258Z,29.5
2017-04-14T06:19:42.631Z,29.5
2017-04-14T06:20:42.647Z,29.5
2017-04-14T06:21:42.840Z,29.6
2017-04-14T06:22:44.669Z,29.6
2017-04-14T06:23:43.029Z,29.6
2017-04-14T06:24:44.590Z,29.6
2017-04-14T06:25:43.125Z,29.7
2017-04-14T06:26:43.076Z,29.7
2017-04-14T06:27:43.265Z,29.7
2017-04-14T06:28:44.898Z,29.8
2017-04-14T06:29:43.252Z,29.7
2017-04-14T06:30:43.365Z,29.8
2017-04-14T06:31:43.240Z,29.8
2017-04-14T06:32:43.441Z,29.8
2017-04-14T06:33:45.083Z,29.8
2017-04-14T06:34:43.511Z,29.8
2017-04-14T06:35:45.144Z,29.8
2017-04-14T06:36:45.157Z,29.8
2017-04-14T06:37:43.618Z,29.8
2017-04-14T06:38:45.135Z,29.7
2017-04-14T06:39:43.556Z,29.8
2017-04-14T06:40:44.044Z,29.7
2017-04-14T06:41:43.644Z,29.7
2017-04-14T06:42:45.323Z,29.7
2017-04-14T06:43:45.382Z,29.7
2017-04-14T06:44:43.896Z,29.7
2017-04-14T06:45:45.497Z,29.7
2017-04-14T06:46:45.657Z,29.7
2017-04-14T06:47:44.022Z,29.6
2017-04-14T06:48:45.719Z,29.7
2017-04-14T06:49:44.070Z,29.6
2017-04-14T06:50:44.103Z,29.6
2017-04-14T06:51:45.819Z,29.6
2017-04-14T06:52:46.009Z,29.6
2017-04-14T06:53:44.252Z,29.6
2017-04-14T06:54:45.986Z,29.6
2017-04-14T06:55:44.409Z,29.6
2017-04-14T06:56:45.904Z,29.6
2017-04-14T06:57:46.071Z,29.6
2017-04-14T06:58:44.555Z,29.6
2017-04-14T06:59:46.005Z,29.6
2017-04-14T07:00:44.630Z,29.6
2017-04-14T07:01:46.222Z,29.5
2017-04-14T07:02:46.169Z,29.6
2017-04-14T07:03:46.248Z,29.6
2017-04-14T07:04:46.609Z,29.6
2017-04-14T07:05:44.836Z,29.5
2017-04-14T07:06:44.729Z,29.6
2017-04-14T07:07:46.360Z,29.6
2017-04-14T07:08:44.770Z,29.5
2017-04-14T07:09:46.566Z,29.5
2017-04-14T07:10:45.126Z,29.5
2017-04-14T07:11:46.638Z,29.5
2017-04-14T07:12:46.696Z,29.5
2017-04-14T07:13:45.167Z,29.6
2017-04-14T07:14:46.626Z,29.5
2017-04-14T07:15:45.175Z,29.5
2017-04-14T07:16:47.046Z,29.5
2017-04-14T07:17:46.945Z,29.5
2017-04-14T07:18:45.265Z,29.5
2017-04-14T07:19:45.454Z,29.5
2017-04-14T07:20:46.910Z,29.5
2017-04-14T07:21:47.048Z,29.5
2017-04-14T07:22:47.225Z,29.5
2017-04-14T07:23:45.477Z,29.5
2017-04-14T07:24:47.103Z,29.5
2017-04-14T07:25:47.158Z,29.5
2017-04-14T07:26:47.192Z,29.5
2017-04-14T07:27:45.768Z,29.5
2017-04-14T07:28:45.961Z,29.5
2017-04-14T07:29:47.325Z,29.5
2017-04-14T07:30:47.312Z,29.5
2017-04-14T07:31:47.380Z,29.5
2017-04-14T07:32:45.957Z,29.5
2017-04-14T07:33:46.598Z,29.5
2017-04-14T07:34:47.702Z,29.5
2017-04-14T07:35:46.701Z,29.5
2017-04-14T07:36:46.074Z,29.5
2017-04-14T07:37:48.388Z,29.5
2017-04-14T07:38:46.185Z,29.5
2017-04-14T07:39:46.315Z,29.5
2017-04-14T07:40:46.545Z,29.5
2017-04-14T07:41:48.041Z,29.5
2017-04-14T07:42:48.148Z,29.5
2017-04-14T07:43:46.454Z,29.5
2017-04-14T07:44:46.460Z,29.5
2017-04-14T07:45:48.218Z,29.6
2017-04-14T07:46:46.874Z,29.5
2017-04-14T07:47:48.219Z,29.5
2017-04-14T07:48:48.331Z,29.5
2017-04-14T07:49:46.712Z,29.5
2017-04-14T07:50:48.425Z,29.6
2017-04-14T07:51:48.419Z,29.6
2017-04-14T07:52:47.169Z,29.6
2017-04-14T07:53:48.645Z,29.6
2017-04-14T07:54:48.657Z,29.6
2017-04-14T07:55:47.158Z,29.6
2017-04-14T07:56:47.098Z,29.6
2017-04-14T07:57:47.247Z,29.6
2017-04-14T07:58:47.386Z,29.6
2017-04-14T07:59:48.917Z,29.6
2017-04-14T08:00:48.979Z,29.6
2017-04-14T08:01:47.439Z,29.7
2017-04-14T08:02:47.590Z,29.7
2017-04-14T08:03:47.550Z,29.7
2017-04-14T08:04:49.366Z,29.8
2017-04-14T08:05:49.325Z,29.8
2017-04-14T08:06:49.312Z,29.8
2017-04-14T08:07:47.797Z,29.8
2017-04-14T08:08:47.773Z,29.8
2017-04-14T08:09:47.894Z,29.8
2017-04-14T08:10:48.158Z,29.8
2017-04-14T08:11:48.037Z,29.8
2017-04-14T08:12:49.600Z,29.8
2017-04-14T08:13:48.095Z,29.8
2017-04-14T08:14:49.895Z,29.8
2017-04-14T08:15:48.201Z,29.8
2017-04-14T08:16:50.132Z,29.8
2017-04-14T08:17:49.919Z,29.8
2017-04-14T08:18:48.490Z,29.8
2017-04-14T08:19:50.099Z,29.8
2017-04-14T08:20:50.176Z,29.8
2017-04-14T08:21:50.783Z,29.8
2017-04-14T08:22:49.127Z,29.8
2017-04-14T08:23:48.847Z,29.8
2017-04-14T08:24:48.868Z,29.8
2017-04-14T08:25:48.845Z,29.8
2017-04-14T08:26:50.518Z,29.8
2017-04-14T08:27:49.021Z,29.8
2017-04-14T08:28:50.761Z,29.8
2017-04-14T08:29:50.542Z,29.8
2017-04-14T08:30:50.694Z,29.8
2017-04-14T08:31:48.982Z,29.8
2017-04-14T08:32:50.802Z,29.8
2017-04-14T08:33:49.315Z,29.8
2017-04-14T08:34:49.498Z,29.8
2017-04-14T08:35:51.030Z,29.8
2017-04-14T08:36:49.289Z,29.8
2017-04-14T08:37:49.365Z,29.8
2017-04-14T08:38:49.450Z,29.8
2017-04-14T08:39:49.479Z,29.8
2017-04-14T08:40:51.505Z,29.8
2017-04-14T08:41:49.597Z,29.8
2017-04-14T08:42:49.633Z,29.8
2017-04-14T08:43:51.416Z,29.8
2017-04-14T08:44:49.808Z,29.8
2017-04-14T08:45:49.769Z,29.8
2017-04-14T08:46:51.716Z,29.7
2017-04-14T08:47:51.535Z,29.8
2017-04-14T08:48:51.629Z,29.8
2017-04-14T08:49:49.999Z,29.8
2017-04-14T08:50:50.149Z,29.7
2017-04-14T08:51:51.740Z,29.8
2017-04-14T08:52:52.087Z,29.8
2017-04-14T08:53:51.893Z,29.8
2017-04-14T08:54:50.321Z,29.8
2017-04-14T08:55:50.366Z,29.8
2017-04-14T08:56:50.527Z,29.8
2017-04-14T08:57:50.498Z,29.8
2017-04-14T08:58:50.706Z,29.8
2017-04-14T08:59:52.289Z,29.8
2017-04-14T09:00:52.295Z,29.8
2017-04-14T09:01:52.283Z,29.8
2017-04-14T09:02:52.337Z,29.9
2017-04-14T09:03:50.787Z,29.8
2017-04-14T09:04:50.987Z,29.9
2017-04-14T09:05:52.533Z,29.9
2017-04-14T09:06:51.097Z,29.9
2017-04-14T09:07:52.640Z,29.9
2017-04-14T09:08:51.108Z,29.9
2017-04-14T09:09:51.286Z,29.9
2017-04-14T09:10:51.325Z,29.9
2017-04-14T09:11:51.363Z,29.9
2017-04-14T09:12:53.012Z,29.9
2017-04-14T09:13:53.039Z,29.9
2017-04-14T09:14:51.446Z,29.9
2017-04-14T09:15:53.165Z,29.9
2017-04-14T09:16:53.435Z,29.9
2017-04-14T09:17:53.224Z,29.9
2017-04-14T09:18:51.660Z,29.9
2017-04-14T09:19:53.369Z,29.9
2017-04-14T09:20:51.907Z,29.9
2017-04-14T09:21:53.474Z,29.9
2017-04-14T09:22:56.351Z,29.9
2017-04-14T09:23:51.923Z,29.9
2017-04-14T09:24:51.893Z,29.9
2017-04-14T09:25:53.553Z,29.9
2017-04-14T09:26:52.153Z,29.9
2017-04-14T09:27:53.766Z,29.9
2017-04-14T09:28:52.350Z,29.9
2017-04-14T09:29:52.109Z,29.9
2017-04-14T09:30:52.284Z,29.9
2017-04-14T09:31:52.260Z,29.9
2017-04-14T09:32:53.839Z,29.9
2017-04-14T09:33:53.826Z,29.9
2017-04-14T09:34:54.047Z,29.9
2017-04-14T09:35:52.251Z,29.9
2017-04-14T09:36:54.042Z,29.9
2017-04-14T09:37:53.964Z,29.9
2017-04-14T09:38:52.549Z,29.9
2017-04-14T09:39:54.215Z,29.9
2017-04-14T09:40:54.429Z,29.9
2017-04-14T09:41:56.224Z,29.9
2017-04-14T09:42:52.729Z,29.9
2017-04-14T09:43:54.402Z,29.9
2017-04-14T09:44:55.176Z,30
2017-04-14T09:45:52.935Z,30
2017-04-14T09:46:53.144Z,30
2017-04-14T09:47:54.144Z,30
2017-04-14T09:48:52.936Z,30
2017-04-14T09:49:55.213Z,30
2017-04-14T09:50:54.654Z,30
2017-04-14T09:51:53.034Z,30
2017-04-14T09:52:54.931Z,30
2017-04-14T09:53:54.766Z,30
2017-04-14T09:54:53.212Z,30
2017-04-14T09:55:54.828Z,30
2017-04-14T09:56:53.412Z,30
2017-04-14T09:57:53.643Z,30.1
2017-04-14T09:58:53.386Z,30.1
2017-04-14T09:59:55.125Z,30.1
2017-04-14T10:00:55.167Z,30.1
2017-04-14T10:01:55.141Z,30.1
2017-04-14T10:02:55.333Z,30.1
2017-04-14T10:03:53.930Z,30.1
2017-04-14T10:04:55.407Z,30.1
2017-04-14T10:05:53.889Z,30.2
2017-04-14T10:06:55.378Z,30.2
2017-04-14T10:07:55.452Z,30.2
2017-04-14T10:08:55.617Z,30.1
2017-04-14T10:09:55.901Z,30.1
2017-04-14T10:10:53.993Z,30.2
2017-04-14T10:11:54.160Z,30.2
2017-04-14T10:12:55.739Z,30.2
2017-04-14T10:13:54.253Z,30.2
2017-04-14T10:14:55.985Z,30.2
2017-04-14T10:15:54.430Z,30.2
2017-04-14T10:16:55.994Z,30.2
2017-04-14T10:17:56.133Z,30.2
2017-04-14T10:18:56.126Z,30.2
2017-04-14T10:19:54.604Z,30.2
2017-04-14T10:20:54.625Z,30.3
2017-04-14T10:21:54.819Z,30.2
2017-04-14T10:22:54.753Z,30.2
2017-04-14T10:23:54.797Z,30.2
2017-04-14T10:24:56.563Z,30.2
2017-04-14T10:25:57.105Z,30.2
2017-04-14T10:26:56.549Z,30.2
2017-04-14T10:27:57.015Z,30.2
2017-04-14T10:28:56.678Z,30.2
2017-04-14T10:29:56.855Z,30.2
2017-04-14T10:30:56.908Z,30.2
2017-04-14T10:31:55.404Z,30.2
2017-04-14T10:32:57.095Z,30.2
2017-04-14T10:33:57.212Z,30.2
2017-04-14T10:34:57.132Z,30.2
2017-04-14T10:35:56.371Z,30.2
2017-04-14T10:36:57.164Z,30.2
2017-04-14T10:37:57.291Z,30.3
2017-04-14T10:38:55.838Z,30.2
2017-04-14T10:39:57.513Z,30.3
2017-04-14T10:40:56.460Z,30.3
2017-04-14T10:41:55.830Z,30.3
2017-04-14T10:42:57.606Z,30.3
2017-04-14T10:43:57.548Z,30.3
2017-04-14T10:44:57.624Z,30.3
2017-04-14T10:45:56.170Z,30.3
2017-04-14T10:46:57.738Z,30.3
2017-04-14T10:47:56.228Z,30.3
2017-04-14T10:48:57.858Z,30.3
2017-04-14T10:49:57.936Z,30.3
2017-04-14T10:50:58.003Z,30.4
2017-04-14T10:51:56.507Z,30.4
2017-04-14T10:52:56.412Z,30.4
2017-04-14T10:53:58.201Z,30.4
2017-04-14T10:54:58.306Z,30.4
2017-04-14T10:55:56.684Z,30.4
2017-04-14T10:56:58.277Z,30.4
2017-04-14T10:57:58.680Z,30.5
2017-04-14T10:58:56.960Z,30.4
2017-04-14T10:59:58.419Z,30.5
2017-04-14T11:00:58.524Z,30.5
2017-04-14T11:01:56.897Z,30.5
2017-04-14T11:02:58.556Z,30.5
2017-04-14T11:03:58.759Z,30.6
2017-04-14T11:04:58.753Z,30.6
2017-04-14T11:05:57.070Z,30.6
2017-04-14T11:06:57.199Z,30.6
2017-04-14T11:07:57.200Z,30.6
2017-04-14T11:08:59.045Z,30.7
2017-04-14T11:09:58.889Z,30.7
2017-04-14T11:10:57.331Z,30.7
2017-04-14T11:11:57.539Z,30.8
2017-04-14T11:12:57.556Z,30.8
2017-04-14T11:13:57.750Z,30.8
2017-04-14T11:14:59.535Z,30.9
2017-04-14T11:15:57.734Z,30.9
2017-04-14T11:16:59.515Z,31
2017-04-14T11:17:57.963Z,31.1
2017-04-14T11:18:59.585Z,31.2
2017-04-14T11:19:59.629Z,31.3
2017-04-14T11:20:59.795Z,31.5
2017-04-14T11:21:59.116Z,31.8
2017-04-14T11:22:58.104Z,32
2017-04-14T11:23:59.919Z,32.1
2017-04-14T11:24:58.242Z,32.2
2017-04-14T11:25:58.449Z,32.2
2017-04-14T11:27:00.063Z,32.2
2017-04-14T11:28:00.137Z,32.2
2017-04-14T11:28:58.609Z,32.2
2017-04-14T11:29:58.481Z,32.1
2017-04-14T11:30:58.615Z,32
2017-04-14T11:32:00.294Z,32
2017-04-14T11:32:58.809Z,31.9
2017-04-14T11:33:58.648Z,31.8
2017-04-14T11:34:58.839Z,31.7
2017-04-14T11:35:58.892Z,31.6
2017-04-14T11:36:58.821Z,31.4
2017-04-14T11:38:00.473Z,31.3
2017-04-14T11:39:00.656Z,31.3
2017-04-14T11:39:59.085Z,31.2
2017-04-14T11:40:59.212Z,31.1
2017-04-14T11:41:59.094Z,31
2017-04-14T11:42:59.243Z,31
2017-04-14T11:44:00.835Z,30.9
2017-04-14T11:45:00.883Z,30.8
2017-04-14T11:46:00.921Z,30.8
2017-04-14T11:47:02.017Z,30.8
2017-04-14T11:47:59.421Z,30.7
2017-04-14T11:48:59.461Z,30.7
2017-04-14T11:50:01.217Z,30.6
2017-04-14T11:51:01.294Z,30.6
2017-04-14T11:52:01.273Z,30.5
2017-04-14T11:52:59.885Z,30.5
2017-04-14T11:53:59.863Z,30.5
2017-04-14T11:55:01.476Z,30.4
2017-04-14T11:55:59.873Z,30.4
2017-04-14T11:57:01.542Z,30.4
2017-04-14T11:58:01.616Z,30.3
2017-04-14T11:59:01.775Z,30.3
2017-04-14T12:00:00.295Z,30.3
2017-04-14T12:01:01.780Z,30.2
2017-04-14T12:02:00.437Z,30.2
2017-04-14T12:03:01.956Z,30.2
2017-04-14T12:04:00.546Z,30.2
2017-04-14T12:05:02.051Z,30.2
2017-04-14T12:06:02.111Z,30.1
2017-04-14T12:07:00.584Z,30.2
2017-04-14T12:08:00.776Z,30.2
2017-04-14T12:09:02.290Z,30.1
2017-04-14T12:10:00.756Z,30.1
2017-04-14T12:11:02.390Z,30.1
2017-04-14T12:12:02.477Z,30.1
2017-04-14T12:13:02.683Z,30.1
2017-04-14T12:14:02.686Z,30.1
2017-04-14T12:15:01.316Z,30.1
2017-04-14T12:16:02.924Z,30.1
2017-04-14T12:17:01.393Z,30.1
2017-04-14T12:18:02.842Z,30.1
2017-04-14T12:19:01.418Z,30.1
2017-04-14T12:20:03.089Z,30.1
2017-04-14T12:21:01.368Z,30.1
2017-04-14T12:22:03.038Z,30.1
2017-04-14T12:23:01.625Z,30.1
2017-04-14T12:24:01.557Z,30.1
2017-04-14T12:25:03.272Z,30.1
2017-04-14T12:26:01.637Z,30.1
2017-04-14T12:27:01.808Z,30.1
2017-04-14T12:28:01.686Z,30.1
2017-04-14T12:29:03.375Z,30.1
2017-04-14T12:30:03.501Z,30.1
2017-04-14T12:31:03.651Z,30.1
2017-04-14T12:32:01.948Z,30
2017-04-14T12:33:03.638Z,30
2017-04-14T12:34:02.075Z,30
2017-04-14T12:35:02.144Z,30
2017-04-14T12:36:02.162Z,30
2017-04-14T12:37:02.852Z,30
2017-04-14T12:38:04.102Z,30
2017-04-14T12:39:04.047Z,30
2017-04-14T12:40:04.136Z,30
2017-04-14T12:41:02.490Z,30
2017-04-14T12:42:04.162Z,29.9
2017-04-14T12:43:04.381Z,30
2017-04-14T12:44:02.937Z,30
2017-04-14T12:45:04.459Z,30
2017-04-14T12:46:04.364Z,30
2017-04-14T12:47:04.507Z,30
2017-04-14T12:48:04.513Z,30
2017-04-14T12:49:03.043Z,29.9
2017-04-14T12:50:04.838Z,29.9
2017-04-14T12:51:04.742Z,29.9
2017-04-14T12:52:04.799Z,29.9
2017-04-14T12:53:04.864Z,29.9
2017-04-14T12:54:04.742Z,29.9
2017-04-14T12:55:03.361Z,29.9
2017-04-14T12:56:03.405Z,29.9
2017-04-14T12:57:04.883Z,29.9
2017-04-14T12:58:03.343Z,29.9
2017-04-14T12:59:04.983Z,29.9
2017-04-14T13:00:03.291Z,29.9
2017-04-14T13:01:03.478Z,29.9
2017-04-14T13:02:05.243Z,29.9
2017-04-14T13:03:05.185Z,29.9
2017-04-14T13:04:05.076Z,29.8
2017-04-14T13:05:05.149Z,29.9
2017-04-14T13:06:03.536Z,29.9
2017-04-14T13:07:03.733Z,29.8
2017-04-14T13:08:05.371Z,29.9
2017-04-14T13:09:05.385Z,29.9
2017-04-14T13:10:03.684Z,29.9
2017-04-14T13:11:05.315Z,29.8
2017-04-14T13:12:03.740Z,29.9
2017-04-14T13:13:05.358Z,29.9
2017-04-14T13:14:05.594Z,29.9
2017-04-14T13:15:03.828Z,29.9
2017-04-14T13:16:05.542Z,29.8
2017-04-14T13:17:04.072Z,29.9
2017-04-14T13:18:04.148Z,29.9
2017-04-14T13:19:05.754Z,29.9
2017-04-14T13:20:05.856Z,29.9
2017-04-14T13:21:05.804Z,29.9
2017-04-14T13:22:04.275Z,29.9
2017-04-14T13:23:05.841Z,29.8